Korlátozott kapacitással újraindult a forgalom Ferihegyen 16:20-tól.

2010. december 18. [16:30] A Budapest Airport 16:20-tól újra fogad és indít járatokat. A pontos járatinformáció, illetve a légitársaságok elérhetősége a weboldalunkon megtalálhatók. Forrás: bud.hu

Notam: A2445/10 – THE ARRIVAL/DEPARTURE CAPACITY OF RUNWAY SYSTEM IS RESTRICTED TO 6 ARRIVAL/HOUR 6 DEPARTURE/HOUR DUE TO SINGLE RUNWAY OPERATIONS AND REMOTE DE-ICING PROCEDURE. 18 DEC 15:20 2010 UNTIL 18 DEC 20:00 2010. CREATED: 18 DEC 15:24 2010

Korábban:

METAR LHBP 181400Z VRB02KT 1500 -SN BR OVC007 M06/M07 Q1002 R88/SNOCLO BECMG 2500

A cikk a hirdetés alatt folytatódik.

2010. december 18. [15:55] Az intenzív havazás miatt a ferihegyi repülőteret ideiglenesen be kellett zárni. A Budapest Airport jelenleg nem fogad és nem indít járatokat előreláthatólag 17 óráig. Forrás: bud.hu

Az alábbi NOTAM alapján helyi idő szerint 17:00 óráig zárva a reptér:
A2444/10 – AERODROME CLOSED DUE TO WEATHER CONDITIONS. 18 DEC 14:16 2010 UNTIL 18 DEC 16:00 2010. CREATED: 18 DEC 14:16 2010

További friss információk a hozzászólásokban! Az utasoknak javasoljuk, hogy a http://www.bud.hu oldalon, vagy az M1 teletext 190. oldalán, illetve a légitársaságok ügyfélszolgálatán tájékozódjanak!

Kövess minket a közösségi médiában, és iratkozz fel napi hírösszefoglalónkra!
Hasznos, érdekes volt amit olvastál? Már egy újság árával támogathatod az AIRportal.hu működését!